Time;durP1;ratioP1;P1;durP2;ratioP2;P2;SDS_P1;SDS_P2;PMS_P1;PMS_P2;Temp;Humidity;BMP_temperature;BMP_pressure;BME280_temperature;BME280_humidity;BME280_pressure;Samples;Min_cycle;Max_cycle;Signal;HPM_P1;HPM_P2
2022/07/28 00:01:53;;;;;;;4.97;1.25;;;16.60;67.70;;;;;;5071578;28;20024;-74
2022/07/28 00:04:19;;;;;;;5.72;1.40;;;16.60;67.40;;;;;;5069838;28;20025;-74
2022/07/28 00:06:45;;;;;;;2.38;1.20;;;16.60;67.60;;;;;;5071072;28;20483;-73
2022/07/28 00:09:10;;;;;;;2.15;0.75;;;16.60;67.00;;;;;;5071926;28;20056;-73
2022/07/28 00:11:36;;;;;;;2.85;1.05;;;16.70;67.90;;;;;;5071535;28;20017;-73
2022/07/28 00:14:02;;;;;;;5.88;1.05;;;16.70;67.10;;;;;;5070705;28;20090;-74
2022/07/28 00:16:27;;;;;;;4.15;1.15;;;16.70;67.30;;;;;;5071466;28;20017;-74
2022/07/28 00:18:53;;;;;;;4.05;1.15;;;16.70;67.20;;;;;;5070411;28;20105;-73
2022/07/28 00:21:18;;;;;;;8.18;1.60;;;16.70;67.30;;;;;;5057148;28;20025;-74
2022/07/28 00:23:44;;;;;;;2.60;1.02;;;16.70;67.20;;;;;;5069259;28;20029;-74
2022/07/28 00:26:11;;;;;;;4.82;1.02;;;16.70;67.40;;;;;;5071009;28;20108;-74
2022/07/28 00:28:37;;;;;;;2.58;1.00;;;16.60;67.80;;;;;;5071794;28;20062;-74
2022/07/28 00:31:04;;;;;;;3.92;0.90;;;16.60;67.20;;;;;;5071367;28;20556;-74
2022/07/28 00:33:30;;;;;;;6.65;1.50;;;16.60;67.10;;;;;;5066731;28;20194;-74
2022/07/28 00:35:56;;;;;;;6.22;1.80;;;16.60;66.90;;;;;;5071225;28;20512;-74
2022/07/28 00:38:21;;;;;;;5.63;1.15;;;16.50;67.10;;;;;;5070817;28;20040;-74
2022/07/28 00:43:31;;;;;;;5.30;1.10;;;16.50;67.70;;;;;;5070388;28;20040;-73
2022/07/28 00:45:57;;;;;;;3.75;1.10;;;16.50;67.40;;;;;;5069860;28;20020;-74
2022/07/28 00:48:23;;;;;;;2.58;1.17;;;16.40;67.90;;;;;;5069839;28;20407;-74
2022/07/28 00:50:50;;;;;;;4.43;1.27;;;16.40;67.90;;;;;;5070846;28;20031;-74
2022/07/28 00:53:16;;;;;;;4.50;1.20;;;16.40;67.30;;;;;;5070588;28;20104;-74
2022/07/28 00:55:43;;;;;;;4.22;1.10;;;16.30;67.20;;;;;;5070316;28;20021;-73
2022/07/28 00:58:09;;;;;;;7.53;1.30;;;16.30;67.20;;;;;;5061475;28;20114;-73
2022/07/28 01:00:35;;;;;;;5.53;1.45;;;16.30;67.30;;;;;;5070165;28;20487;-73
2022/07/28 01:03:05;;;;;;;5.20;1.40;;;16.30;67.50;;;;;;5062769;28;20033;-73
2022/07/28 01:05:51;;;;;;;3.88;1.30;;;16.30;67.50;;;;;;5070514;28;20031;-73
2022/07/28 01:08:42;;;;;;;3.17;1.08;;;16.30;67.80;;;;;;5068172;28;20056;-75
2022/07/28 01:11:51;;;;;;;4.35;1.20;;;16.30;68.20;;;;;;5069943;28;20100;-73
2022/07/28 01:14:37;;;;;;;5.03;1.20;;;16.30;68.40;;;;;;5069078;28;20056;-73
2022/07/28 01:17:13;;;;;;;7.07;1.30;;;16.20;68.30;;;;;;5065649;28;20051;-73
2022/07/28 01:19:40;;;;;;;3.88;1.42;;;16.20;67.90;;;;;;5059891;28;20510;-73
2022/07/28 01:22:10;;;;;;;4.30;1.50;;;16.20;68.10;;;;;;5066470;28;20028;-74
2022/07/28 01:25:05;;;;;;;5.90;1.07;;;16.20;68.30;;;;;;5070400;28;20020;-74
2022/07/28 01:28:00;;;;;;;5.18;1.42;;;16.10;68.10;;;;;;5070149;28;20306;-74
2022/07/28 01:30:38;;;;;;;2.45;1.00;;;16.20;67.90;;;;;;5069886;28;20024;-73
2022/07/28 01:33:15;;;;;;;4.40;1.10;;;16.10;68.20;;;;;;5067785;28;20033;-73
2022/07/28 01:35:53;;;;;;;5.72;1.15;;;16.10;68.80;;;;;;5069618;28;20017;-73
2022/07/28 01:38:21;;;;;;;5.32;0.93;;;16.00;68.70;;;;;;5069727;28;20032;-72
2022/07/28 01:40:51;;;;;;;2.40;1.10;;;16.00;68.60;;;;;;5069244;28;20036;-73
2022/07/28 01:43:21;;;;;;;6.15;1.77;;;16.00;68.80;;;;;;5069374;28;20487;-73
2022/07/28 01:45:46;;;;;;;4.10;1.20;;;15.90;68.80;;;;;;5069309;28;20031;-73
2022/07/28 01:48:15;;;;;;;7.28;1.27;;;15.90;68.70;;;;;;5068559;28;20025;-73
2022/07/28 01:50:43;;;;;;;3.15;1.08;;;15.90;68.70;;;;;;5070153;28;20020;-74
2022/07/28 01:53:14;;;;;;;5.97;1.10;;;15.80;68.60;;;;;;5068450;28;20020;-74
2022/07/28 01:55:42;;;;;;;3.08;1.23;;;15.80;68.70;;;;;;5067826;28;20483;-73
2022/07/28 01:58:10;;;;;;;4.70;1.40;;;15.80;68.90;;;;;;5067369;28;20032;-74
2022/07/28 02:00:37;;;;;;;3.78;1.25;;;15.80;69.00;;;;;;5069572;28;20017;-73
2022/07/28 02:03:05;;;;;;;6.55;1.50;;;15.80;69.50;;;;;;5067014;28;20029;-73
2022/07/28 02:05:36;;;;;;;4.80;1.42;;;15.80;69.10;;;;;;5055162;28;20012;-73
2022/07/28 02:08:03;;;;;;;;;;;15.80;69.20;;;;;;5070071;28;20017;-73
2022/07/28 02:10:31;;;;;;;3.50;0.90;;;15.80;69.10;;;;;;5068583;28;19927;-74
2022/07/28 02:12:59;;;;;;;5.18;1.42;;;15.80;69.60;;;;;;5069347;28;20061;-73
2022/07/28 02:15:27;;;;;;;3.03;1.10;;;15.70;69.60;;;;;;5068154;28;20103;-73
2022/07/28 02:17:54;;;;;;;5.43;1.20;;;15.70;69.80;;;;;;5068919;28;20044;-75
2022/07/28 02:20:21;;;;;;;8.45;1.92;;;15.70;69.70;;;;;;5066832;28;20031;-74
2022/07/28 02:22:48;;;;;;;5.35;1.20;;;15.60;69.80;;;;;;5068642;28;20104;-73
2022/07/28 02:25:15;;;;;;;5.45;1.48;;;15.60;69.90;;;;;;5069376;28;20016;-74
2022/07/28 02:27:49;;;;;;;4.28;1.30;;;15.60;69.90;;;;;;5067874;28;20034;-74
2022/07/28 02:30:27;;;;;;;4.72;1.10;;;15.60;69.80;;;;;;5049242;28;20443;-73
2022/07/28 02:32:55;;;;;;;2.97;1.30;;;15.60;70.00;;;;;;5065929;28;20363;-73
2022/07/28 02:35:32;;;;;;;6.18;1.35;;;15.60;70.00;;;;;;5062663;28;20021;-73
2022/07/28 02:38:01;;;;;;;6.25;1.48;;;15.60;69.90;;;;;;5066042;28;20036;-74
2022/07/28 02:40:35;;;;;;;4.10;1.10;;;15.50;69.90;;;;;;5068446;28;20049;-73
2022/07/28 02:43:02;;;;;;;5.88;1.30;;;15.50;70.10;;;;;;5068685;28;20028;-73
2022/07/28 02:45:30;;;;;;;4.72;1.10;;;15.50;70.10;;;;;;5068952;28;20028;-74
2022/07/28 02:48:00;;;;;;;4.35;1.42;;;15.40;70.30;;;;;;5068031;28;20035;-73
2022/07/28 02:50:27;;;;;;;;;;;15.40;70.30;;;;;;5068532;28;20489;-73
2022/07/28 02:53:04;;;;;;;4.18;1.23;;;15.40;70.50;;;;;;5068503;28;19911;-74
2022/07/28 02:55:38;;;;;;;3.45;1.10;;;15.30;70.30;;;;;;5062658;28;20044;-74
2022/07/28 02:58:06;;;;;;;3.30;1.30;;;15.30;70.50;;;;;;5061334;28;20151;-75
2022/07/28 03:00:33;;;;;;;4.18;1.30;;;15.30;70.70;;;;;;5067752;28;20009;-73
2022/07/28 03:02:59;;;;;;;5.20;1.27;;;15.30;70.80;;;;;;5052679;28;20057;-74
2022/07/28 03:05:27;;;;;;;7.63;1.58;;;15.30;70.60;;;;;;5060849;28;20068;-74
2022/07/28 03:07:54;;;;;;;3.47;1.13;;;15.30;70.30;;;;;;5068696;28;20024;-73
2022/07/28 03:10:25;;;;;;;3.42;0.95;;;15.20;70.50;;;;;;5068881;28;20063;-73
2022/07/28 03:12:51;;;;;;;3.38;0.85;;;15.30;70.50;;;;;;5069235;28;20020;-74
2022/07/28 03:15:18;;;;;;;7.90;1.73;;;15.30;70.60;;;;;;5068606;28;20035;-74
2022/07/28 03:17:43;;;;;;;5.32;1.13;;;15.20;70.40;;;;;;5062541;28;20056;-73
2022/07/28 03:20:13;;;;;;;5.25;1.55;;;15.30;70.40;;;;;;5064005;28;20025;-73
2022/07/28 03:22:40;;;;;;;5.50;1.23;;;15.30;70.10;;;;;;5051568;28;20388;-73
2022/07/28 03:25:18;;;;;;;6.68;1.55;;;15.30;70.10;;;;;;5070222;28;20017;-73
2022/07/28 03:27:47;;;;;;;8.73;1.40;;;15.30;70.10;;;;;;5070184;28;20435;-73
2022/07/28 03:30:20;;;;;;;3.60;1.30;;;15.20;70.00;;;;;;5068249;28;20020;-74
2022/07/28 03:32:53;;;;;;;3.10;0.95;;;15.20;70.00;;;;;;5073243;28;20630;-74
2022/07/28 03:35:19;;;;;;;3.55;1.00;;;15.20;70.20;;;;;;5072706;28;20021;-74
2022/07/28 03:38:04;;;;;;;5.13;1.05;;;15.20;70.10;;;;;;5073074;28;20029;-74
2022/07/28 03:40:31;;;;;;;2.17;0.90;;;15.20;70.10;;;;;;5070811;28;20040;-74
2022/07/28 03:43:02;;;;;;;3.95;1.10;;;15.20;70.00;;;;;;5065883;28;20025;-75
2022/07/28 03:45:28;;;;;;;8.75;1.15;;;15.20;70.90;;;;;;5071070;28;20031;-74
2022/07/28 03:47:56;;;;;;;5.43;1.30;;;15.20;70.60;;;;;;5062612;28;20074;-74
2022/07/28 03:50:23;;;;;;;3.83;1.05;;;15.20;70.80;;;;;;5073831;28;20036;-74
2022/07/28 03:52:51;;;;;;;5.47;1.20;;;15.20;70.50;;;;;;5074060;28;20032;-74
2022/07/28 03:55:17;;;;;;;5.50;1.35;;;15.20;70.50;;;;;;5066096;28;20406;-73
2022/07/28 03:57:43;;;;;;;4.82;1.50;;;15.20;70.50;;;;;;5069978;28;20036;-74
2022/07/28 04:00:11;;;;;;;4.78;1.42;;;15.20;70.60;;;;;;5072413;28;20051;-73
2022/07/28 04:02:42;;;;;;;7.53;1.95;;;15.20;70.60;;;;;;5068303;28;20070;-74
2022/07/28 04:05:10;;;;;;;7.72;1.77;;;15.10;70.90;;;;;;5072390;28;20032;-73
2022/07/28 04:07:40;;;;;;;6.80;1.02;;;15.10;70.90;;;;;;5072163;28;20479;-73
2022/07/28 04:10:08;;;;;;;5.25;1.23;;;15.10;71.80;;;;;;5072085;28;20434;-74
2022/07/28 04:12:47;;;;;;;6.88;1.55;;;15.10;71.30;;;;;;5064447;28;20475;-74
2022/07/28 04:15:13;;;;;;;7.38;1.98;;;15.10;71.20;;;;;;5071642;28;20024;-74
2022/07/28 04:17:39;;;;;;;4.53;0.98;;;15.10;71.30;;;;;;5072488;28;20491;-74
2022/07/28 04:20:06;;;;;;;5.10;1.40;;;15.10;71.40;;;;;;5072854;28;20053;-74
2022/07/28 04:22:32;;;;;;;9.32;2.08;;;15.10;71.80;;;;;;5073128;28;20009;-74
2022/07/28 04:25:00;;;;;;;5.30;1.30;;;15.10;71.80;;;;;;5073526;28;20024;-74
2022/07/28 04:27:26;;;;;;;6.63;1.52;;;15.10;71.90;;;;;;5070458;28;20020;-74
2022/07/28 04:29:53;;;;;;;9.55;1.75;;;15.10;72.00;;;;;;5052409;28;20033;-73
2022/07/28 04:32:19;;;;;;;4.72;1.40;;;15.10;72.20;;;;;;5067244;28;20471;-73
2022/07/28 04:34:47;;;;;;;4.22;1.38;;;15.10;72.40;;;;;;5071689;28;20070;-74
2022/07/28 04:37:13;;;;;;;4.82;1.65;;;15.10;72.40;;;;;;5072165;28;20039;-74
2022/07/28 04:39:39;;;;;;;7.38;1.42;;;15.10;72.40;;;;;;5069667;28;20032;-73
2022/07/28 04:42:05;;;;;;;5.40;1.25;;;15.20;72.30;;;;;;5071928;28;20056;-73
2022/07/28 04:44:31;;;;;;;6.57;1.23;;;15.20;72.30;;;;;;5071030;28;20099;-75
2022/07/28 04:46:57;;;;;;;5.40;1.48;;;15.20;72.40;;;;;;5068641;28;20364;-73
2022/07/28 04:49:23;;;;;;;9.13;1.83;;;15.20;72.20;;;;;;5071172;28;20073;-74
2022/07/28 04:51:51;;;;;;;6.88;1.95;;;15.20;72.20;;;;;;5070859;28;20025;-75
2022/07/28 04:54:17;;;;;;;4.78;1.65;;;15.20;72.10;;;;;;5071011;28;20048;-74
2022/07/28 04:56:43;;;;;;;4.88;1.27;;;15.20;72.10;;;;;;5070993;28;20021;-74
2022/07/28 04:59:11;;;;;;;5.88;1.08;;;15.30;72.20;;;;;;5070708;28;20036;-74
2022/07/28 05:01:38;;;;;;;5.22;1.63;;;15.30;72.10;;;;;;5063267;28;20032;-74
2022/07/28 05:04:04;;;;;;;5.78;1.08;;;15.30;72.00;;;;;;5070786;28;20107;-74
2022/07/28 05:06:30;;;;;;;6.13;1.50;;;15.40;71.80;;;;;;5070405;28;20017;-74
2022/07/28 05:08:55;;;;;;;3.83;1.30;;;15.40;71.90;;;;;;5069638;28;20077;-74
2022/07/28 05:11:21;;;;;;;9.88;1.95;;;15.50;71.60;;;;;;5060058;28;20026;-74
2022/07/28 05:13:47;;;;;;;7.32;1.50;;;15.60;71.30;;;;;;5070404;28;20016;-74
2022/07/28 05:16:12;;;;;;;4.32;1.38;;;15.80;70.80;;;;;;5060720;28;20056;-74
2022/07/28 05:18:38;;;;;;;5.43;1.58;;;15.80;70.40;;;;;;5066734;28;20040;-74
2022/07/28 05:21:03;;;;;;;4.38;1.13;;;15.80;70.30;;;;;;5070377;28;20035;-74
2022/07/28 05:23:29;;;;;;;6.97;1.40;;;15.90;70.20;;;;;;5069933;28;20111;-72
2022/07/28 05:25:55;;;;;;;7.25;1.30;;;15.90;70.20;;;;;;5069967;28;20024;-74
2022/07/28 05:28:21;;;;;;;4.38;1.23;;;15.90;70.10;;;;;;5067738;28;20046;-72
2022/07/28 05:30:46;;;;;;;3.15;1.20;;;16.00;70.10;;;;;;5069115;28;20025;-73
2022/07/28 05:33:14;;;;;;;5.75;1.10;;;16.10;69.90;;;;;;5069888;28;20013;-74
2022/07/28 05:35:40;;;;;;;4.75;1.42;;;16.10;69.60;;;;;;5070687;28;20032;-74
2022/07/28 05:38:06;;;;;;;4.95;1.35;;;16.20;69.40;;;;;;5069322;28;20028;-73
2022/07/28 05:40:31;;;;;;;6.72;1.30;;;16.30;69.10;;;;;;5068578;28;20101;-73
2022/07/28 05:42:57;;;;;;;5.57;1.10;;;16.40;68.70;;;;;;5069073;28;20037;-74
2022/07/28 05:45:23;;;;;;;3.20;0.93;;;16.40;68.90;;;;;;5069216;28;20394;-74
2022/07/28 05:47:51;;;;;;;5.68;1.30;;;16.50;68.70;;;;;;5065406;28;20119;-74
2022/07/28 05:50:19;;;;;;;2.15;0.80;;;16.50;68.60;;;;;;5068795;28;20016;-74
2022/07/28 05:52:46;;;;;;;4.85;0.85;;;16.60;68.60;;;;;;5070066;28;20048;-74
2022/07/28 05:55:12;;;;;;;3.75;0.98;;;16.70;68.30;;;;;;5069637;28;20021;-75
2022/07/28 05:57:38;;;;;;;4.07;1.38;;;16.80;68.10;;;;;;5068474;28;20039;-74
2022/07/28 06:00:07;;;;;;;3.63;0.80;;;16.80;68.00;;;;;;5069002;28;20021;-73
2022/07/28 06:02:33;;;;;;;3.05;0.85;;;16.90;67.70;;;;;;5069614;28;20390;-74
2022/07/28 06:04:58;;;;;;;3.90;1.02;;;16.90;67.50;;;;;;5069267;28;20028;-73
2022/07/28 06:07:24;;;;;;;7.40;1.20;;;17.00;67.50;;;;;;5068258;28;20037;-74
2022/07/28 06:09:50;;;;;;;6.47;1.20;;;17.10;67.10;;;;;;5069266;28;20435;-73
2022/07/28 06:12:15;;;;;;;7.18;1.20;;;17.20;67.00;;;;;;5069354;28;20099;-73
2022/07/28 06:14:41;;;;;;;3.63;1.13;;;17.20;66.60;;;;;;5060745;28;20021;-74
2022/07/28 06:17:06;;;;;;;5.18;1.02;;;17.30;66.50;;;;;;5059300;28;20127;-74
2022/07/28 06:19:32;;;;;;;3.85;0.95;;;17.40;66.00;;;;;;5065593;28;20487;-74
2022/07/28 06:21:58;;;;;;;5.10;1.23;;;17.40;66.00;;;;;;5062590;28;20048;-73
2022/07/28 06:24:23;;;;;;;4.05;1.02;;;17.40;65.70;;;;;;5057565;28;20029;-73
2022/07/28 06:26:49;;;;;;;5.20;1.33;;;17.40;66.30;;;;;;5060126;28;20500;-72
2022/07/28 06:29:15;;;;;;;4.60;1.17;;;17.40;66.10;;;;;;5061636;28;20020;-73
2022/07/28 06:31:40;;;;;;;4.22;0.73;;;17.50;66.30;;;;;;5062011;28;20017;-74
2022/07/28 06:34:06;;;;;;;2.42;0.90;;;17.60;65.90;;;;;;5057772;28;20528;-74
2022/07/28 06:36:31;;;;;;;4.70;1.15;;;17.80;65.70;;;;;;5060266;28;20124;-72
2022/07/28 06:38:57;;;;;;;1.80;0.57;;;17.80;65.50;;;;;;5056239;28;20482;-73
2022/07/28 06:41:22;;;;;;;5.50;1.08;;;18.00;64.90;;;;;;5060550;28;20052;-73
2022/07/28 06:43:50;;;;;;;7.80;1.17;;;18.00;64.30;;;;;;5055156;28;20120;-72
2022/07/28 06:46:18;;;;;;;4.57;1.13;;;18.10;63.70;;;;;;5058677;28;20044;-72
2022/07/28 06:48:44;;;;;;;4.78;1.42;;;18.10;64.00;;;;;;5068113;28;20091;-73
2022/07/28 06:51:11;;;;;;;4.82;1.05;;;18.00;63.80;;;;;;5067347;28;20021;-73
2022/07/28 06:53:37;;;;;;;2.40;0.90;;;18.00;64.60;;;;;;5067741;28;20023;-72
2022/07/28 06:56:05;;;;;;;4.72;0.65;;;18.00;64.80;;;;;;5067269;28;20651;-73
2022/07/28 06:58:31;;;;;;;2.95;0.82;;;18.10;64.80;;;;;;5067731;28;20121;-74
2022/07/28 07:00:57;;;;;;;5.03;0.60;;;18.20;64.30;;;;;;5066073;28;20048;-73
2022/07/28 07:03:22;;;;;;;3.85;0.93;;;18.30;63.80;;;;;;5068571;28;20062;-73
2022/07/28 07:05:48;;;;;;;3.83;0.90;;;18.30;63.70;;;;;;5068089;28;20496;-74
2022/07/28 07:08:13;;;;;;;2.13;0.60;;;18.30;63.80;;;;;;5069068;28;20036;-69
2022/07/28 07:10:39;;;;;;;3.45;0.52;;;18.40;64.20;;;;;;5068505;28;20016;-69
2022/07/28 07:13:05;;;;;;;2.40;0.75;;;18.60;63.70;;;;;;5068523;28;20020;-70
2022/07/28 07:15:30;;;;;;;4.30;0.60;;;18.70;63.10;;;;;;5054714;28;20060;-69
2022/07/28 07:17:56;;;;;;;3.30;0.77;;;18.90;63.00;;;;;;5068519;28;20583;-70
2022/07/28 07:20:22;;;;;;;4.03;0.40;;;19.20;62.40;;;;;;5068817;28;20017;-69
2022/07/28 07:22:47;;;;;;;2.00;0.65;;;19.40;61.80;;;;;;5067799;28;20508;-69
2022/07/28 07:25:16;;;;;;;2.67;0.80;;;19.60;60.90;;;;;;5068497;28;20039;-70
2022/07/28 07:27:42;;;;;;;5.00;0.90;;;19.60;60.00;;;;;;5059643;28;20071;-69
2022/07/28 07:30:09;;;;;;;2.05;0.63;;;19.70;60.20;;;;;;5048239;28;20032;-69
2022/07/28 07:32:36;;;;;;;2.53;0.90;;;19.70;60.00;;;;;;5060956;28;20017;-70
2022/07/28 07:35:02;;;;;;;2.15;0.70;;;19.80;60.10;;;;;;5068681;28;20558;-69
2022/07/28 07:37:31;;;;;;;2.95;0.60;;;20.00;59.70;;;;;;5066331;28;20576;-69
2022/07/28 07:40:00;;;;;;;6.50;1.20;;;20.00;59.00;;;;;;5068538;28;20099;-68
2022/07/28 07:42:27;;;;;;;2.28;0.57;;;20.00;58.60;;;;;;5065721;28;20024;-69
2022/07/28 07:44:53;;;;;;;2.15;1.00;;;20.00;58.40;;;;;;5061810;28;20497;-70
2022/07/28 07:47:19;;;;;;;4.70;0.98;;;20.10;58.70;;;;;;5066678;28;20108;-69
2022/07/28 07:49:44;;;;;;;1.95;0.70;;;20.20;58.50;;;;;;5068922;28;20086;-69
2022/07/28 07:52:10;;;;;;;2.33;0.77;;;20.30;58.60;;;;;;5068187;28;20467;-70
2022/07/28 07:54:36;;;;;;;3.38;0.88;;;20.40;58.20;;;;;;5068586;28;20448;-70
2022/07/28 07:57:01;;;;;;;5.03;0.95;;;20.40;57.50;;;;;;5067847;28;20072;-70
2022/07/28 07:59:27;;;;;;;2.88;0.80;;;20.40;57.10;;;;;;5068051;28;20471;-71
2022/07/28 08:01:53;;;;;;;3.90;0.88;;;20.50;57.40;;;;;;5068129;28;20032;-69
2022/07/28 08:04:23;;;;;;;4.78;0.65;;;20.60;57.00;;;;;;5068142;28;20197;-71
2022/07/28 08:06:50;;;;;;;3.38;0.75;;;20.70;56.80;;;;;;5067792;28;20481;-69
2022/07/28 08:09:16;;;;;;;1.85;0.68;;;20.70;56.90;;;;;;5067910;28;20998;-70
2022/07/28 08:11:42;;;;;;;2.83;0.60;;;20.70;56.40;;;;;;5068162;28;20071;-69
2022/07/28 08:14:08;;;;;;;2.38;0.60;;;20.70;56.70;;;;;;5070616;28;20020;-70
2022/07/28 08:16:34;;;;;;;4.55;1.20;;;20.80;56.50;;;;;;5071975;28;20024;-70
2022/07/28 08:19:00;;;;;;;2.35;0.70;;;21.00;56.10;;;;;;5071515;28;20037;-69
2022/07/28 08:21:27;;;;;;;3.03;0.60;;;21.20;55.70;;;;;;5066465;28;20024;-69
2022/07/28 08:23:54;;;;;;;3.80;0.65;;;21.30;55.20;;;;;;5063033;28;20025;-69
2022/07/28 08:26:21;;;;;;;1.90;0.65;;;21.30;55.30;;;;;;5071686;28;20029;-69
2022/07/28 08:28:47;;;;;;;2.22;0.70;;;21.40;55.70;;;;;;5062167;28;20063;-69
2022/07/28 08:31:15;;;;;;;1.83;0.93;;;21.40;55.00;;;;;;5054225;28;20529;-70
2022/07/28 08:33:42;;;;;;;2.38;0.82;;;21.60;54.90;;;;;;5051456;28;20380;-70
2022/07/28 08:36:08;;;;;;;3.00;0.73;;;21.60;53.90;;;;;;5061475;28;20024;-76
2022/07/28 08:38:33;;;;;;;4.25;0.60;;;21.80;53.80;;;;;;5052506;28;20037;-71
2022/07/28 08:41:03;;;;;;;3.40;0.65;;;22.00;53.60;;;;;;5054963;28;20091;-70
2022/07/28 08:43:38;;;;;;;1.70;0.82;;;22.10;53.40;;;;;;5056108;28;20529;-71
2022/07/28 08:46:05;;;;;;;3.17;1.08;;;22.10;52.90;;;;;;5051427;28;20039;-76
2022/07/28 08:48:36;;;;;;;1.15;0.50;;;22.20;54.90;;;;;;5059230;28;20115;-73
2022/07/28 08:51:04;;;;;;;3.97;0.95;;;22.30;54.50;;;;;;5054862;28;20087;-72
2022/07/28 08:53:31;;;;;;;2.13;0.80;;;22.30;50.20;;;;;;5050038;28;20025;-73
2022/07/28 08:56:05;;;;;;;4.80;0.93;;;22.20;50.50;;;;;;5061094;28;20099;-73
2022/07/28 08:58:33;;;;;;;4.93;0.80;;;22.20;52.40;;;;;;5070225;28;20731;-70
2022/07/28 09:00:59;;;;;;;2.78;0.75;;;22.20;51.00;;;;;;5070263;28;20070;-73
2022/07/28 09:03:27;;;;;;;3.15;0.82;;;22.10;52.90;;;;;;5062791;28;20025;-73
2022/07/28 09:05:53;;;;;;;1.98;0.63;;;22.20;51.60;;;;;;5062454;28;20024;-72
2022/07/28 09:08:19;;;;;;;3.10;0.50;;;22.40;52.30;;;;;;5067064;28;20032;-73
2022/07/28 09:10:46;;;;;;;1.95;0.75;;;22.50;52.60;;;;;;5071977;28;20027;-70
2022/07/28 09:13:11;;;;;;;4.13;0.77;;;22.60;52.60;;;;;;5078388;28;20060;-72
2022/07/28 09:15:37;;;;;;;2.83;0.55;;;22.70;51.80;;;;;;5072711;28;20446;-72
2022/07/28 09:18:03;;;;;;;2.80;0.75;;;22.80;50.10;;;;;;5056591;28;20044;-72
2022/07/28 09:20:29;;;;;;;3.58;0.70;;;22.90;53.40;;;;;;5050496;28;20476;-74
2022/07/28 09:23:04;;;;;;;3.97;0.88;;;23.00;51.10;;;;;;5060514;28;20035;-73
2022/07/28 09:25:30;;;;;;;2.15;0.75;;;23.20;50.70;;;;;;5049795;28;20025;-73
2022/07/28 09:28:08;;;;;;;2.65;0.65;;;23.30;51.70;;;;;;5052006;28;20044;-73
2022/07/28 09:30:36;;;;;;;2.40;0.63;;;23.40;49.70;;;;;;5053441;28;20459;-73
2022/07/28 09:33:16;;;;;;;3.05;0.90;;;23.50;49.60;;;;;;5070021;28;20383;-74
2022/07/28 09:35:47;;;;;;;2.80;0.85;;;23.70;51.30;;;;;;5070411;28;20501;-74
2022/07/28 09:38:13;;;;;;;1.42;0.50;;;23.70;48.00;;;;;;5051132;28;20033;-73
2022/07/28 09:40:39;;;;;;;2.60;0.50;;;23.80;50.70;;;;;;5051880;28;20045;-74
2022/07/28 09:43:05;;;;;;;1.70;0.50;;;23.80;53.20;;;;;;5059065;28;20017;-74
2022/07/28 09:45:31;;;;;;;1.80;0.75;;;23.90;52.00;;;;;;5048694;28;20108;-74
2022/07/28 09:48:10;;;;;;;1.58;0.70;;;24.00;53.80;;;;;;5055109;28;20029;-73
2022/07/28 09:50:36;;;;;;;2.35;0.70;;;23.90;47.40;;;;;;5066163;28;20124;-72
2022/07/28 09:53:22;;;;;;;2.03;0.50;;;24.00;48.50;;;;;;5067822;28;20028;-73
2022/07/28 09:56:06;;;;;;;1.60;0.60;;;24.10;46.30;;;;;;5058060;28;20032;-72
2022/07/28 09:58:32;;;;;;;1.23;0.57;;;24.10;48.70;;;;;;5053924;28;20115;-74
2022/07/28 10:01:19;;;;;;;3.33;0.80;;;24.20;48.30;;;;;;5053500;28;20108;-73
2022/07/28 10:03:50;;;;;;;1.65;0.57;;;24.30;50.00;;;;;;5056642;28;20021;-72
2022/07/28 10:06:29;;;;;;;1.48;0.50;;;24.50;46.00;;;;;;5053865;28;20386;-70
2022/07/28 10:08:58;;;;;;;3.03;0.88;;;24.60;45.20;;;;;;5050399;28;20025;-73
2022/07/28 10:11:26;;;;;;;1.52;0.45;;;24.70;48.60;;;;;;5056896;28;20382;-72
2022/07/28 10:13:53;;;;;;;1.20;0.52;;;24.80;46.90;;;;;;5051791;28;20054;-72
2022/07/28 10:16:26;;;;;;;1.15;0.45;;;24.90;47.60;;;;;;5053527;28;20024;-74
2022/07/28 10:18:52;;;;;;;1.52;0.50;;;24.90;45.60;;;;;;5052502;28;20119;-70
2022/07/28 10:21:21;;;;;;;3.88;0.60;;;25.00;44.80;;;;;;5049884;28;20119;-72
2022/07/28 10:23:57;;;;;;;4.28;0.70;;;25.00;49.20;;;;;;5054817;28;20383;-73
2022/07/28 10:26:46;;;;;;;2.53;0.70;;;25.00;49.80;;;;;;5055911;28;20394;-74
2022/07/28 10:29:15;;;;;;;1.40;0.65;;;25.10;43.10;;;;;;5052443;28;20494;-72
2022/07/28 10:31:49;;;;;;;2.65;0.60;;;25.20;48.70;;;;;;5058748;28;20017;-71
2022/07/28 10:34:29;;;;;;;1.67;0.47;;;25.10;48.80;;;;;;5059907;28;20056;-71
2022/07/28 10:36:57;;;;;;;;;;;25.20;45.80;;;;;;5055713;28;20028;-72
2022/07/28 10:39:27;;;;;;;0.77;0.40;;;25.30;47.50;;;;;;5067245;28;19970;-72
2022/07/28 10:41:55;;;;;;;4.47;0.60;;;25.30;47.40;;;;;;5067080;28;20510;-73
2022/07/28 10:44:21;;;;;;;1.20;0.60;;;25.40;44.30;;;;;;5067012;28;20525;-72
2022/07/28 10:46:48;;;;;;;3.88;0.85;;;25.50;51.60;;;;;;5067244;28;20048;-72
2022/07/28 10:49:13;;;;;;;4.10;0.70;;;25.60;50.80;;;;;;5067750;28;20107;-71
2022/07/28 10:51:42;;;;;;;3.17;0.85;;;25.60;49.60;;;;;;5067598;28;20116;-71
2022/07/28 10:54:32;;;;;;;2.88;0.60;;;25.70;45.20;;;;;;5050644;28;20389;-72
2022/07/28 10:57:01;;;;;;;2.30;0.90;;;25.70;47.30;;;;;;5068034;28;20066;-73
2022/07/28 11:00:00;;;;;;;0.50;0.35;;;25.90;48.80;;;;;;5068873;28;20157;-71
2022/07/28 11:02:44;;;;;;;2.47;0.52;;;26.00;46.20;;;;;;5069113;28;20103;-71
2022/07/28 11:05:48;;;;;;;3.25;0.70;;;26.00;49.10;;;;;;5062447;28;20491;-71
2022/07/28 11:08:17;;;;;;;3.13;0.80;;;26.00;46.30;;;;;;5057153;28;20064;-73
2022/07/28 11:10:48;;;;;;;2.60;0.60;;;26.10;52.80;;;;;;5057031;28;21705;-70
2022/07/28 11:13:31;;;;;;;2.72;0.60;;;26.10;48.30;;;;;;5058824;28;20027;-70
2022/07/28 11:16:18;;;;;;;0.93;0.40;;;26.00;50.30;;;;;;5057319;28;20110;-71
2022/07/28 11:19:07;;;;;;;1.52;0.50;;;26.10;51.80;;;;;;5058559;28;20478;-71
2022/07/28 11:21:36;;;;;;;3.45;1.02;;;26.10;50.40;;;;;;5059563;28;20538;-71
2022/07/28 11:24:02;;;;;;;3.35;0.73;;;26.40;48.80;;;;;;5055997;28;20017;-71
2022/07/28 11:26:34;;;;;;;2.95;0.80;;;26.60;48.60;;;;;;5061177;28;20028;-71
2022/07/28 11:28:59;;;;;;;3.22;0.70;;;26.70;49.00;;;;;;5061244;28;20020;-71
2022/07/28 11:31:55;;;;;;;1.83;0.60;;;26.70;44.30;;;;;;5063896;28;20812;-71
2022/07/28 11:34:23;;;;;;;4.10;0.60;;;26.60;43.80;;;;;;5058465;28;20033;-70
2022/07/28 11:37:08;;;;;;;2.50;0.52;;;26.60;51.10;;;;;;5057372;28;20024;-72
2022/07/28 11:39:36;;;;;;;4.07;0.90;;;26.60;50.20;;;;;;5059761;28;20108;-70
2022/07/28 11:42:24;;;;;;;1.58;0.77;;;26.60;43.00;;;;;;5056712;28;20041;-72
2022/07/28 11:44:50;;;;;;;1.25;0.40;;;26.60;42.00;;;;;;5056165;28;20472;-72
2022/07/28 11:47:17;;;;;;;2.95;1.00;;;26.70;47.70;;;;;;5058018;28;20066;-71
2022/07/28 11:49:44;;;;;;;3.05;0.68;;;26.60;38.30;;;;;;5060230;28;20020;-69
2022/07/28 11:52:15;;;;;;;1.85;0.70;;;26.60;45.40;;;;;;5062028;28;20052;-70
2022/07/28 11:54:46;;;;;;;2.30;0.50;;;26.60;46.30;;;;;;5060813;28;20044;-71
2022/07/28 11:57:12;;;;;;;1.75;0.68;;;26.60;48.30;;;;;;5060361;28;20478;-72
2022/07/28 11:59:49;;;;;;;2.60;0.60;;;26.60;49.20;;;;;;5061208;28;20032;-71
2022/07/28 12:02:16;;;;;;;1.98;0.52;;;26.80;46.70;;;;;;5058097;28;20024;-71
2022/07/28 12:04:42;;;;;;;1.75;0.60;;;27.10;43.60;;;;;;5061040;28;20104;-71
2022/07/28 12:07:09;;;;;;;1.85;0.45;;;27.20;45.90;;;;;;5061259;28;20088;-70
2022/07/28 12:09:36;;;;;;;3.67;1.00;;;27.30;41.90;;;;;;5062100;28;20025;-70
2022/07/28 12:12:02;;;;;;;2.85;0.70;;;27.10;40.10;;;;;;5059715;28;20021;-71
2022/07/28 12:14:29;;;;;;;2.58;0.60;;;27.10;43.60;;;;;;5059531;28;21520;-71
2022/07/28 12:16:55;;;;;;;1.83;0.50;;;27.20;50.70;;;;;;5060811;28;20036;-70
2022/07/28 12:19:21;;;;;;;4.53;0.70;;;27.40;51.20;;;;;;5051907;28;20041;-72
2022/07/28 12:21:49;;;;;;;2.40;0.63;;;27.60;44.80;;;;;;5051771;28;20075;-71
2022/07/28 12:24:17;;;;;;;3.20;0.60;;;27.80;45.40;;;;;;5051782;28;20023;-70
2022/07/28 12:26:44;;;;;;;2.83;0.60;;;27.90;44.40;;;;;;5053622;28;20429;-71
2022/07/28 12:29:13;;;;;;;1.73;0.80;;;28.00;50.20;;;;;;5059624;28;20056;-71
2022/07/28 12:32:01;;;;;;;1.92;0.60;;;28.00;44.20;;;;;;5053532;28;20033;-71
2022/07/28 12:34:28;;;;;;;1.40;0.40;;;27.90;44.10;;;;;;5063898;28;20380;-72
2022/07/28 12:36:56;;;;;;;3.47;0.90;;;27.90;49.40;;;;;;5062674;28;20021;-72
2022/07/28 12:39:24;;;;;;;3.25;0.50;;;27.80;37.80;;;;;;5051074;28;20037;-71
2022/07/28 12:42:03;;;;;;;3.65;0.60;;;27.70;47.70;;;;;;5050358;28;20099;-73
2022/07/28 12:44:40;;;;;;;2.83;0.50;;;27.50;44.80;;;;;;5051401;28;20025;-72
2022/07/28 12:47:10;;;;;;;4.65;0.70;;;27.50;51.30;;;;;;5052057;28;20020;-70
2022/07/28 12:49:37;;;;;;;3.70;0.60;;;27.70;51.40;;;;;;5071166;28;20067;-70
2022/07/28 12:52:16;;;;;;;3.63;0.82;;;27.80;51.30;;;;;;5067596;28;20117;-70
2022/07/28 12:54:42;;;;;;;2.92;0.98;;;27.80;48.30;;;;;;5061781;28;20017;-71
2022/07/28 12:57:07;;;;;;;4.53;1.05;;;27.90;45.80;;;;;;5055458;28;20075;-71
2022/07/28 12:59:35;;;;;;;5.43;1.80;;;28.00;49.90;;;;;;5059086;28;20645;-71
2022/07/28 13:02:01;;;;;;;3.05;0.82;;;28.30;40.50;;;;;;5057004;28;20057;-71